sensor_id;sensor_type;location;lat;lon;timestamp;P1;durP1;ratioP1;P2;durP2;ratioP2
4214;SDS011;2121;48.062;7.850;2022-09-29T00:00:36;1.60;;;1.50;;
4214;SDS011;2121;48.062;7.850;2022-09-29T00:03:02;2.30;;;2.10;;
4214;SDS011;2121;48.062;7.850;2022-09-29T00:05:29;4.50;;;2.20;;
4214;SDS011;2121;48.062;7.850;2022-09-29T00:07:55;2.20;;;2.00;;
4214;SDS011;2121;48.062;7.850;2022-09-29T00:10:20;2.70;;;2.13;;
4214;SDS011;2121;48.062;7.850;2022-09-29T00:12:47;3.03;;;2.03;;
4214;SDS011;2121;48.062;7.850;2022-09-29T00:15:13;1.77;;;1.67;;
4214;SDS011;2121;48.062;7.850;2022-09-29T00:17:39;3.03;;;2.37;;
4214;SDS011;2121;48.062;7.850;2022-09-29T00:20:05;7.60;;;2.20;;
4214;SDS011;2121;48.062;7.850;2022-09-29T00:22:32;4.83;;;2.70;;
4214;SDS011;2121;48.062;7.850;2022-09-29T00:24:58;1.90;;;1.80;;
4214;SDS011;2121;48.062;7.850;2022-09-29T00:27:24;2.20;;;2.00;;
4214;SDS011;2121;48.062;7.850;2022-09-29T00:29:50;4.00;;;2.27;;
4214;SDS011;2121;48.062;7.850;2022-09-29T00:32:16;2.20;;;2.10;;
4214;SDS011;2121;48.062;7.850;2022-09-29T00:34:42;8.27;;;2.70;;
4214;SDS011;2121;48.062;7.850;2022-09-29T00:37:08;3.33;;;2.30;;
4214;SDS011;2121;48.062;7.850;2022-09-29T00:39:34;2.47;;;2.23;;
4214;SDS011;2121;48.062;7.850;2022-09-29T00:42:00;3.10;;;2.30;;
4214;SDS011;2121;48.062;7.850;2022-09-29T00:47:16;2.50;;;2.30;;
4214;SDS011;2121;48.062;7.850;2022-09-29T00:52:17;2.50;;;2.30;;
4214;SDS011;2121;48.062;7.850;2022-09-29T00:54:49;3.90;;;2.07;;
4214;SDS011;2121;48.062;7.850;2022-09-29T00:57:29;6.00;;;2.30;;
4214;SDS011;2121;48.062;7.850;2022-09-29T01:00:10;3.90;;;2.43;;
4214;SDS011;2121;48.062;7.850;2022-09-29T01:02:43;3.30;;;3.00;;
4214;SDS011;2121;48.062;7.850;2022-09-29T01:05:17;7.93;;;2.47;;
4214;SDS011;2121;48.062;7.850;2022-09-29T01:08:02;2.40;;;2.20;;
4214;SDS011;2121;48.062;7.850;2022-09-29T01:10:42;2.33;;;2.23;;
4214;SDS011;2121;48.062;7.850;2022-09-29T01:13:09;2.20;;;2.10;;
4214;SDS011;2121;48.062;7.850;2022-09-29T01:15:35;3.13;;;2.83;;
4214;SDS011;2121;48.062;7.850;2022-09-29T01:18:01;5.90;;;3.30;;
4214;SDS011;2121;48.062;7.850;2022-09-29T01:20:27;4.13;;;2.53;;
4214;SDS011;2121;48.062;7.850;2022-09-29T01:31:56;3.27;;;2.10;;
4214;SDS011;2121;48.062;7.850;2022-09-29T01:42:26;2.50;;;2.27;;
4214;SDS011;2121;48.062;7.850;2022-09-29T01:45:09;3.80;;;2.27;;
4214;SDS011;2121;48.062;7.850;2022-09-29T01:47:41;4.50;;;2.73;;
4214;SDS011;2121;48.062;7.850;2022-09-29T01:50:19;2.63;;;2.23;;
4214;SDS011;2121;48.062;7.850;2022-09-29T01:52:53;2.40;;;2.30;;
4214;SDS011;2121;48.062;7.850;2022-09-29T01:55:25;2.10;;;2.00;;
4214;SDS011;2121;48.062;7.850;2022-09-29T01:58:01;2.63;;;2.40;;
4214;SDS011;2121;48.062;7.850;2022-09-29T02:00:34;2.67;;;2.20;;
4214;SDS011;2121;48.062;7.850;2022-09-29T02:03:15;2.60;;;2.40;;
4214;SDS011;2121;48.062;7.850;2022-09-29T02:06:15;2.37;;;2.27;;
4214;SDS011;2121;48.062;7.850;2022-09-29T02:08:50;4.73;;;2.57;;
4214;SDS011;2121;48.062;7.850;2022-09-29T02:11:19;3.50;;;2.87;;
4214;SDS011;2121;48.062;7.850;2022-09-29T02:16:41;2.70;;;2.47;;
4214;SDS011;2121;48.062;7.850;2022-09-29T02:21:45;2.60;;;2.40;;
4214;SDS011;2121;48.062;7.850;2022-09-29T02:24:11;2.43;;;2.23;;
4214;SDS011;2121;48.062;7.850;2022-09-29T02:26:37;3.07;;;2.47;;
4214;SDS011;2121;48.062;7.850;2022-09-29T02:29:05;2.73;;;2.53;;
4214;SDS011;2121;48.062;7.850;2022-09-29T02:31:32;4.30;;;2.40;;
4214;SDS011;2121;48.062;7.850;2022-09-29T02:34:00;8.10;;;2.30;;
4214;SDS011;2121;48.062;7.850;2022-09-29T02:36:42;3.23;;;2.70;;
4214;SDS011;2121;48.062;7.850;2022-09-29T02:39:39;2.60;;;2.37;;
4214;SDS011;2121;48.062;7.850;2022-09-29T02:51:40;4.03;;;2.53;;
4214;SDS011;2121;48.062;7.850;2022-09-29T02:56:54;5.47;;;2.60;;
4214;SDS011;2121;48.062;7.850;2022-09-29T02:59:53;2.50;;;2.00;;
4214;SDS011;2121;48.062;7.850;2022-09-29T03:02:36;2.50;;;2.30;;
4214;SDS011;2121;48.062;7.850;2022-09-29T03:05:04;19.70;;;3.07;;
4214;SDS011;2121;48.062;7.850;2022-09-29T03:07:37;2.40;;;2.20;;
4214;SDS011;2121;48.062;7.850;2022-09-29T03:10:03;1.83;;;1.73;;
4214;SDS011;2121;48.062;7.850;2022-09-29T03:12:30;3.43;;;2.20;;
4214;SDS011;2121;48.062;7.850;2022-09-29T03:14:56;4.43;;;2.83;;
4214;SDS011;2121;48.062;7.850;2022-09-29T03:17:22;2.20;;;2.00;;
4214;SDS011;2121;48.062;7.850;2022-09-29T03:19:47;3.33;;;3.03;;
4214;SDS011;2121;48.062;7.850;2022-09-29T03:22:13;3.40;;;2.57;;
4214;SDS011;2121;48.062;7.850;2022-09-29T03:24:39;4.60;;;2.70;;
4214;SDS011;2121;48.062;7.850;2022-09-29T03:27:06;3.53;;;2.63;;
4214;SDS011;2121;48.062;7.850;2022-09-29T03:29:34;2.40;;;2.20;;
4214;SDS011;2121;48.062;7.850;2022-09-29T03:32:00;3.10;;;2.50;;
4214;SDS011;2121;48.062;7.850;2022-09-29T03:34:26;2.60;;;2.40;;
4214;SDS011;2121;48.062;7.850;2022-09-29T03:36:52;3.43;;;2.60;;
4214;SDS011;2121;48.062;7.850;2022-09-29T03:39:18;2.70;;;2.50;;
4214;SDS011;2121;48.062;7.850;2022-09-29T03:41:45;2.83;;;2.60;;
4214;SDS011;2121;48.062;7.850;2022-09-29T03:44:11;3.27;;;2.67;;
4214;SDS011;2121;48.062;7.850;2022-09-29T03:46:37;2.83;;;2.50;;
4214;SDS011;2121;48.062;7.850;2022-09-29T03:49:02;9.40;;;3.87;;
4214;SDS011;2121;48.062;7.850;2022-09-29T03:51:28;5.37;;;4.30;;
4214;SDS011;2121;48.062;7.850;2022-09-29T03:53:54;6.00;;;3.50;;
4214;SDS011;2121;48.062;7.850;2022-09-29T03:56:20;5.00;;;2.90;;
4214;SDS011;2121;48.062;7.850;2022-09-29T03:58:46;3.37;;;2.43;;
4214;SDS011;2121;48.062;7.850;2022-09-29T04:01:12;2.90;;;2.70;;
4214;SDS011;2121;48.062;7.850;2022-09-29T04:03:37;3.00;;;2.80;;
4214;SDS011;2121;48.062;7.850;2022-09-29T04:06:03;2.30;;;2.20;;
4214;SDS011;2121;48.062;7.850;2022-09-29T04:08:29;2.60;;;2.40;;
4214;SDS011;2121;48.062;7.850;2022-09-29T04:10:54;2.70;;;2.50;;
4214;SDS011;2121;48.062;7.850;2022-09-29T04:13:20;5.20;;;2.70;;
4214;SDS011;2121;48.062;7.850;2022-09-29T04:15:49;2.60;;;2.40;;
4214;SDS011;2121;48.062;7.850;2022-09-29T04:18:14;2.40;;;2.30;;
4214;SDS011;2121;48.062;7.850;2022-09-29T04:20:40;2.23;;;2.13;;
4214;SDS011;2121;48.062;7.850;2022-09-29T04:23:06;2.80;;;2.60;;
4214;SDS011;2121;48.062;7.850;2022-09-29T04:25:32;2.53;;;2.33;;
4214;SDS011;2121;48.062;7.850;2022-09-29T04:27:58;2.67;;;2.43;;
4214;SDS011;2121;48.062;7.850;2022-09-29T04:30:24;2.73;;;2.53;;
4214;SDS011;2121;48.062;7.850;2022-09-29T04:32:50;2.37;;;2.20;;
4214;SDS011;2121;48.062;7.850;2022-09-29T04:35:16;2.60;;;2.40;;
4214;SDS011;2121;48.062;7.850;2022-09-29T04:37:41;3.93;;;2.30;;
4214;SDS011;2121;48.062;7.850;2022-09-29T04:40:07;3.63;;;3.13;;
4214;SDS011;2121;48.062;7.850;2022-09-29T04:42:33;6.67;;;3.40;;
4214;SDS011;2121;48.062;7.850;2022-09-29T04:45:02;4.20;;;3.07;;
4214;SDS011;2121;48.062;7.850;2022-09-29T04:47:28;5.23;;;3.60;;
4214;SDS011;2121;48.062;7.850;2022-09-29T04:49:54;4.73;;;3.57;;
4214;SDS011;2121;48.062;7.850;2022-09-29T04:52:20;2.93;;;2.73;;
4214;SDS011;2121;48.062;7.850;2022-09-29T04:54:46;2.60;;;2.40;;
4214;SDS011;2121;48.062;7.850;2022-09-29T04:57:12;6.17;;;2.47;;
4214;SDS011;2121;48.062;7.850;2022-09-29T04:59:37;4.60;;;2.77;;
4214;SDS011;2121;48.062;7.850;2022-09-29T05:02:03;3.30;;;2.70;;
4214;SDS011;2121;48.062;7.850;2022-09-29T05:04:29;2.80;;;2.60;;
4214;SDS011;2121;48.062;7.850;2022-09-29T05:06:57;5.23;;;4.67;;
4214;SDS011;2121;48.062;7.850;2022-09-29T05:09:23;8.70;;;8.00;;
4214;SDS011;2121;48.062;7.850;2022-09-29T05:11:49;4.93;;;2.67;;
4214;SDS011;2121;48.062;7.850;2022-09-29T05:14:15;19.03;;;2.80;;
4214;SDS011;2121;48.062;7.850;2022-09-29T05:16:40;2.67;;;2.47;;
4214;SDS011;2121;48.062;7.850;2022-09-29T05:19:08;3.67;;;3.40;;
4214;SDS011;2121;48.062;7.850;2022-09-29T05:21:34;2.90;;;2.70;;
4214;SDS011;2121;48.062;7.850;2022-09-29T05:24:00;4.20;;;2.83;;
4214;SDS011;2121;48.062;7.850;2022-09-29T05:26:26;3.93;;;2.57;;
4214;SDS011;2121;48.062;7.850;2022-09-29T05:28:52;2.70;;;2.50;;
4214;SDS011;2121;48.062;7.850;2022-09-29T05:31:17;5.07;;;2.60;;
4214;SDS011;2121;48.062;7.850;2022-09-29T05:33:43;4.60;;;3.47;;
4214;SDS011;2121;48.062;7.850;2022-09-29T05:36:10;3.70;;;3.40;;
4214;SDS011;2121;48.062;7.850;2022-09-29T05:38:37;6.37;;;5.73;;
4214;SDS011;2121;48.062;7.850;2022-09-29T05:41:10;10.57;;;7.37;;
4214;SDS011;2121;48.062;7.850;2022-09-29T05:43:37;9.23;;;5.60;;
4214;SDS011;2121;48.062;7.850;2022-09-29T05:46:05;7.40;;;5.77;;
4214;SDS011;2121;48.062;7.850;2022-09-29T05:48:33;6.13;;;5.37;;
4214;SDS011;2121;48.062;7.850;2022-09-29T05:50:59;7.00;;;5.70;;
4214;SDS011;2121;48.062;7.850;2022-09-29T05:53:34;4.30;;;3.90;;
4214;SDS011;2121;48.062;7.850;2022-09-29T05:56:04;4.37;;;3.97;;
4214;SDS011;2121;48.062;7.850;2022-09-29T05:58:32;4.30;;;4.00;;
4214;SDS011;2121;48.062;7.850;2022-09-29T06:00:58;4.00;;;3.70;;
4214;SDS011;2121;48.062;7.850;2022-09-29T06:03:24;4.50;;;4.10;;
4214;SDS011;2121;48.062;7.850;2022-09-29T06:05:49;9.30;;;4.00;;
4214;SDS011;2121;48.062;7.850;2022-09-29T06:08:15;8.43;;;4.20;;
4214;SDS011;2121;48.062;7.850;2022-09-29T06:10:41;4.80;;;3.93;;
4214;SDS011;2121;48.062;7.850;2022-09-29T06:13:06;4.83;;;4.43;;
4214;SDS011;2121;48.062;7.850;2022-09-29T06:15:32;13.80;;;6.80;;
4214;SDS011;2121;48.062;7.850;2022-09-29T06:17:59;8.60;;;7.60;;
4214;SDS011;2121;48.062;7.850;2022-09-29T06:20:25;6.60;;;6.00;;
4214;SDS011;2121;48.062;7.850;2022-09-29T06:22:54;6.63;;;5.93;;
4214;SDS011;2121;48.062;7.850;2022-09-29T06:25:21;4.93;;;4.40;;
4214;SDS011;2121;48.062;7.850;2022-09-29T06:27:47;6.13;;;3.83;;
4214;SDS011;2121;48.062;7.850;2022-09-29T06:30:13;5.23;;;3.73;;
4214;SDS011;2121;48.062;7.850;2022-09-29T06:32:39;3.53;;;3.27;;
4214;SDS011;2121;48.062;7.850;2022-09-29T06:35:05;3.70;;;3.13;;
4214;SDS011;2121;48.062;7.850;2022-09-29T06:37:52;3.57;;;3.27;;
4214;SDS011;2121;48.062;7.850;2022-09-29T06:40:20;6.57;;;3.53;;
4214;SDS011;2121;48.062;7.850;2022-09-29T06:42:47;2.80;;;2.60;;
4214;SDS011;2121;48.062;7.850;2022-09-29T06:45:13;2.40;;;2.30;;
4214;SDS011;2121;48.062;7.850;2022-09-29T06:47:40;3.93;;;3.50;;
4214;SDS011;2121;48.062;7.850;2022-09-29T06:50:06;4.67;;;4.13;;
4214;SDS011;2121;48.062;7.850;2022-09-29T06:52:33;5.77;;;4.77;;
4214;SDS011;2121;48.062;7.850;2022-09-29T06:54:59;5.70;;;4.17;;
4214;SDS011;2121;48.062;7.850;2022-09-29T06:57:25;4.37;;;3.97;;
4214;SDS011;2121;48.062;7.850;2022-09-29T06:59:51;3.80;;;3.50;;
4214;SDS011;2121;48.062;7.850;2022-09-29T07:02:17;3.70;;;3.07;;
4214;SDS011;2121;48.062;7.850;2022-09-29T07:04:42;7.73;;;4.27;;
4214;SDS011;2121;48.062;7.850;2022-09-29T07:07:08;4.10;;;3.73;;
4214;SDS011;2121;48.062;7.850;2022-09-29T07:09:34;8.90;;;3.50;;
4214;SDS011;2121;48.062;7.850;2022-09-29T07:12:00;3.73;;;3.40;;
4214;SDS011;2121;48.062;7.850;2022-09-29T07:14:26;3.30;;;3.10;;
4214;SDS011;2121;48.062;7.850;2022-09-29T07:16:51;4.33;;;3.93;;
4214;SDS011;2121;48.062;7.850;2022-09-29T07:19:17;3.53;;;3.00;;
4214;SDS011;2121;48.062;7.850;2022-09-29T07:21:44;3.50;;;3.00;;
4214;SDS011;2121;48.062;7.850;2022-09-29T07:24:13;3.90;;;3.40;;
4214;SDS011;2121;48.062;7.850;2022-09-29T07:26:40;4.93;;;3.30;;
4214;SDS011;2121;48.062;7.850;2022-09-29T07:29:06;9.70;;;5.40;;
4214;SDS011;2121;48.062;7.850;2022-09-29T07:31:32;4.40;;;3.90;;
4214;SDS011;2121;48.062;7.850;2022-09-29T07:33:57;5.73;;;5.00;;
4214;SDS011;2121;48.062;7.850;2022-09-29T07:36:23;6.30;;;4.60;;
4214;SDS011;2121;48.062;7.850;2022-09-29T07:38:49;3.73;;;3.43;;
4214;SDS011;2121;48.062;7.850;2022-09-29T07:41:16;4.00;;;3.60;;
4214;SDS011;2121;48.062;7.850;2022-09-29T07:43:44;4.67;;;4.17;;
4214;SDS011;2121;48.062;7.850;2022-09-29T07:46:10;5.50;;;3.80;;
4214;SDS011;2121;48.062;7.850;2022-09-29T07:48:36;17.23;;;4.27;;
4214;SDS011;2121;48.062;7.850;2022-09-29T07:51:07;3.70;;;3.40;;
4214;SDS011;2121;48.062;7.850;2022-09-29T07:53:43;3.37;;;3.07;;
4214;SDS011;2121;48.062;7.850;2022-09-29T07:58:37;5.80;;;4.33;;
4214;SDS011;2121;48.062;7.850;2022-09-29T08:01:04;4.17;;;3.87;;
4214;SDS011;2121;48.062;7.850;2022-09-29T08:03:34;4.93;;;3.40;;
4214;SDS011;2121;48.062;7.850;2022-09-29T08:06:01;4.23;;;3.83;;
4214;SDS011;2121;48.062;7.850;2022-09-29T08:08:28;3.87;;;3.57;;
4214;SDS011;2121;48.062;7.850;2022-09-29T08:13:49;2.60;;;2.40;;
4214;SDS011;2121;48.062;7.850;2022-09-29T08:16:17;3.57;;;2.63;;
4214;SDS011;2121;48.062;7.850;2022-09-29T08:18:43;4.07;;;3.03;;
4214;SDS011;2121;48.062;7.850;2022-09-29T08:21:10;2.80;;;2.60;;
4214;SDS011;2121;48.062;7.850;2022-09-29T08:23:39;3.93;;;2.70;;
4214;SDS011;2121;48.062;7.850;2022-09-29T08:26:07;4.43;;;2.33;;
4214;SDS011;2121;48.062;7.850;2022-09-29T08:28:39;3.00;;;2.67;;
4214;SDS011;2121;48.062;7.850;2022-09-29T08:31:07;2.67;;;2.50;;
4214;SDS011;2121;48.062;7.850;2022-09-29T08:33:36;2.50;;;2.23;;
4214;SDS011;2121;48.062;7.850;2022-09-29T08:36:03;2.77;;;2.40;;
4214;SDS011;2121;48.062;7.850;2022-09-29T08:38:38;2.60;;;2.40;;
4214;SDS011;2121;48.062;7.850;2022-09-29T08:41:09;5.90;;;3.17;;
4214;SDS011;2121;48.062;7.850;2022-09-29T08:44:05;2.50;;;2.30;;
4214;SDS011;2121;48.062;7.850;2022-09-29T08:47:13;2.53;;;2.37;;
4214;SDS011;2121;48.062;7.850;2022-09-29T08:49:45;5.37;;;2.27;;
4214;SDS011;2121;48.062;7.850;2022-09-29T08:52:22;13.53;;;2.70;;
4214;SDS011;2121;48.062;7.850;2022-09-29T08:58:08;4.33;;;2.90;;
4214;SDS011;2121;48.062;7.850;2022-09-29T09:00:43;3.40;;;3.10;;
4214;SDS011;2121;48.062;7.850;2022-09-29T09:06:23;3.07;;;2.80;;
4214;SDS011;2121;48.062;7.850;2022-09-29T09:23:20;4.17;;;2.67;;
4214;SDS011;2121;48.062;7.850;2022-09-29T09:25:56;2.40;;;2.20;;
4214;SDS011;2121;48.062;7.850;2022-09-29T09:34:11;3.00;;;2.27;;
4214;SDS011;2121;48.062;7.850;2022-09-29T09:36:53;2.50;;;2.13;;
4214;SDS011;2121;48.062;7.850;2022-09-29T09:39:31;2.97;;;2.00;;
4214;SDS011;2121;48.062;7.850;2022-09-29T09:42:12;2.80;;;1.80;;
4214;SDS011;2121;48.062;7.850;2022-09-29T09:44:44;6.03;;;2.60;;
4214;SDS011;2121;48.062;7.850;2022-09-29T09:47:29;2.50;;;2.30;;
4214;SDS011;2121;48.062;7.850;2022-09-29T09:50:11;4.43;;;2.87;;
4214;SDS011;2121;48.062;7.850;2022-09-29T09:52:40;4.60;;;2.77;;
4214;SDS011;2121;48.062;7.850;2022-09-29T09:55:15;6.63;;;3.00;;
4214;SDS011;2121;48.062;7.850;2022-09-29T09:57:59;2.53;;;2.30;;
4214;SDS011;2121;48.062;7.850;2022-09-29T10:00:56;4.40;;;2.27;;
4214;SDS011;2121;48.062;7.850;2022-09-29T10:03:26;6.07;;;2.40;;
4214;SDS011;2121;48.062;7.850;2022-09-29T10:05:53;4.73;;;2.50;;
4214;SDS011;2121;48.062;7.850;2022-09-29T10:08:23;4.90;;;2.70;;
4214;SDS011;2121;48.062;7.850;2022-09-29T10:10:55;3.43;;;1.90;;
4214;SDS011;2121;48.062;7.850;2022-09-29T10:13:27;3.83;;;1.90;;
4214;SDS011;2121;48.062;7.850;2022-09-29T10:18:48;2.70;;;2.50;;
4214;SDS011;2121;48.062;7.850;2022-09-29T10:23:50;2.10;;;2.00;;
4214;SDS011;2121;48.062;7.850;2022-09-29T10:26:28;2.37;;;1.93;;
4214;SDS011;2121;48.062;7.850;2022-09-29T10:29:03;4.67;;;2.30;;
4214;SDS011;2121;48.062;7.850;2022-09-29T10:34:51;2.43;;;2.23;;
4214;SDS011;2121;48.062;7.850;2022-09-29T10:37:41;3.07;;;2.10;;
4214;SDS011;2121;48.062;7.850;2022-09-29T10:40:13;2.20;;;1.90;;
4214;SDS011;2121;48.062;7.850;2022-09-29T10:42:48;4.17;;;1.80;;
4214;SDS011;2121;48.062;7.850;2022-09-29T10:52:53;10.77;;;2.77;;
4214;SDS011;2121;48.062;7.850;2022-09-29T10:55:24;6.53;;;2.33;;
4214;SDS011;2121;48.062;7.850;2022-09-29T10:57:51;2.40;;;2.20;;
4214;SDS011;2121;48.062;7.850;2022-09-29T11:03:20;2.30;;;2.20;;
4214;SDS011;2121;48.062;7.850;2022-09-29T11:05:55;2.30;;;2.10;;
4214;SDS011;2121;48.062;7.850;2022-09-29T11:08:29;3.10;;;2.07;;
4214;SDS011;2121;48.062;7.850;2022-09-29T11:13:50;1.97;;;1.87;;
4214;SDS011;2121;48.062;7.850;2022-09-29T11:16:20;3.77;;;2.77;;
4214;SDS011;2121;48.062;7.850;2022-09-29T11:19:06;2.60;;;2.10;;
4214;SDS011;2121;48.062;7.850;2022-09-29T11:41:35;2.30;;;1.40;;
4214;SDS011;2121;48.062;7.850;2022-09-29T11:50:12;2.10;;;1.90;;
4214;SDS011;2121;48.062;7.850;2022-09-29T11:56:05;2.77;;;1.93;;
4214;SDS011;2121;48.062;7.850;2022-09-29T12:00:25;2.33;;;1.80;;
4214;SDS011;2121;48.062;7.850;2022-09-29T12:08:34;1.77;;;1.67;;
4214;SDS011;2121;48.062;7.850;2022-09-29T12:11:11;1.80;;;1.23;;
4214;SDS011;2121;48.062;7.850;2022-09-29T12:16:29;1.67;;;1.57;;
4214;SDS011;2121;48.062;7.850;2022-09-29T12:21:43;3.00;;;1.50;;
4214;SDS011;2121;48.062;7.850;2022-09-29T12:24:15;1.53;;;1.43;;
4214;SDS011;2121;48.062;7.850;2022-09-29T12:27:11;2.33;;;1.73;;
4214;SDS011;2121;48.062;7.850;2022-09-29T12:29:43;2.33;;;2.00;;
4214;SDS011;2121;48.062;7.850;2022-09-29T12:38:15;1.60;;;1.50;;
4214;SDS011;2121;48.062;7.850;2022-09-29T12:43:42;1.40;;;1.30;;
4214;SDS011;2121;48.062;7.850;2022-09-29T12:46:40;1.30;;;1.30;;
4214;SDS011;2121;48.062;7.850;2022-09-29T12:49:28;1.60;;;1.50;;
4214;SDS011;2121;48.062;7.850;2022-09-29T12:52:23;1.70;;;1.60;;
4214;SDS011;2121;48.062;7.850;2022-09-29T12:54:59;1.60;;;1.50;;
4214;SDS011;2121;48.062;7.850;2022-09-29T12:57:31;4.10;;;2.37;;
4214;SDS011;2121;48.062;7.850;2022-09-29T13:00:05;1.93;;;1.50;;
4214;SDS011;2121;48.062;7.850;2022-09-29T13:08:46;1.50;;;1.40;;
4214;SDS011;2121;48.062;7.850;2022-09-29T13:17:38;1.57;;;1.47;;
4214;SDS011;2121;48.062;7.850;2022-09-29T13:20:49;1.40;;;1.40;;
4214;SDS011;2121;48.062;7.850;2022-09-29T13:29:27;1.60;;;1.50;;
4214;SDS011;2121;48.062;7.850;2022-09-29T13:31:55;2.00;;;1.90;;
4214;SDS011;2121;48.062;7.850;2022-09-29T13:37:15;4.30;;;2.33;;
4214;SDS011;2121;48.062;7.850;2022-09-29T13:45:43;2.87;;;2.77;;
4214;SDS011;2121;48.062;7.850;2022-09-29T13:47:56;3.30;;;3.00;;
4214;SDS011;2121;48.062;7.850;2022-09-29T13:58:28;2.67;;;2.20;;
4214;SDS011;2121;48.062;7.850;2022-09-29T14:01:07;2.17;;;1.97;;
4214;SDS011;2121;48.062;7.850;2022-09-29T14:08:34;3.17;;;2.57;;
4214;SDS011;2121;48.062;7.850;2022-09-29T14:14:36;3.43;;;2.17;;
4214;SDS011;2121;48.062;7.850;2022-09-29T14:17:02;2.40;;;1.90;;
4214;SDS011;2121;48.062;7.850;2022-09-29T14:27:32;2.87;;;1.87;;
4214;SDS011;2121;48.062;7.850;2022-09-29T14:35:26;1.90;;;1.80;;
4214;SDS011;2121;48.062;7.850;2022-09-29T14:38:16;3.27;;;2.13;;
4214;SDS011;2121;48.062;7.850;2022-09-29T14:41:31;1.60;;;1.50;;
4214;SDS011;2121;48.062;7.850;2022-09-29T14:43:55;4.63;;;1.87;;
4214;SDS011;2121;48.062;7.850;2022-09-29T14:53:08;2.90;;;2.50;;
4214;SDS011;2121;48.062;7.850;2022-09-29T14:59:18;1.60;;;1.50;;
4214;SDS011;2121;48.062;7.850;2022-09-29T15:02:25;1.40;;;1.30;;
4214;SDS011;2121;48.062;7.850;2022-09-29T15:04:53;1.97;;;1.87;;
4214;SDS011;2121;48.062;7.850;2022-09-29T15:07:23;1.97;;;1.87;;
4214;SDS011;2121;48.062;7.850;2022-09-29T15:09:55;3.80;;;1.50;;
4214;SDS011;2121;48.062;7.850;2022-09-29T15:12:27;2.20;;;2.00;;
4214;SDS011;2121;48.062;7.850;2022-09-29T15:14:55;1.70;;;1.60;;
4214;SDS011;2121;48.062;7.850;2022-09-29T15:23:04;2.90;;;2.20;;
4214;SDS011;2121;48.062;7.850;2022-09-29T15:25:58;4.93;;;2.07;;
4214;SDS011;2121;48.062;7.850;2022-09-29T15:28:31;2.70;;;1.77;;
4214;SDS011;2121;48.062;7.850;2022-09-29T15:31:03;3.30;;;3.00;;
4214;SDS011;2121;48.062;7.850;2022-09-29T15:33:34;3.87;;;3.00;;
4214;SDS011;2121;48.062;7.850;2022-09-29T15:36:05;2.67;;;2.47;;
4214;SDS011;2121;48.062;7.850;2022-09-29T15:38:42;2.63;;;2.50;;
4214;SDS011;2121;48.062;7.850;2022-09-29T15:43:56;2.13;;;2.03;;
4214;SDS011;2121;48.062;7.850;2022-09-29T15:51:36;3.53;;;2.87;;
4214;SDS011;2121;48.062;7.850;2022-09-29T15:54:03;2.90;;;2.70;;
4214;SDS011;2121;48.062;7.850;2022-09-29T15:56:34;3.77;;;3.23;;
4214;SDS011;2121;48.062;7.850;2022-09-29T15:59:36;4.07;;;3.50;;
4214;SDS011;2121;48.062;7.850;2022-09-29T16:02:05;2.20;;;2.00;;
4214;SDS011;2121;48.062;7.850;2022-09-29T16:04:39;2.60;;;2.40;;
4214;SDS011;2121;48.062;7.850;2022-09-29T16:07:15;2.40;;;2.30;;
4214;SDS011;2121;48.062;7.850;2022-09-29T16:09:46;5.77;;;4.70;;
4214;SDS011;2121;48.062;7.850;2022-09-29T16:12:14;6.90;;;5.90;;
4214;SDS011;2121;48.062;7.850;2022-09-29T16:14:44;6.47;;;5.87;;
4214;SDS011;2121;48.062;7.850;2022-09-29T16:17:11;6.23;;;3.77;;
4214;SDS011;2121;48.062;7.850;2022-09-29T16:19:37;4.80;;;3.87;;
4214;SDS011;2121;48.062;7.850;2022-09-29T16:22:06;2.20;;;2.00;;
4214;SDS011;2121;48.062;7.850;2022-09-29T16:24:50;3.03;;;2.73;;
4214;SDS011;2121;48.062;7.850;2022-09-29T16:27:39;2.60;;;2.13;;
4214;SDS011;2121;48.062;7.850;2022-09-29T16:33:10;1.97;;;1.80;;
4214;SDS011;2121;48.062;7.850;2022-09-29T16:35:55;1.93;;;1.73;;
4214;SDS011;2121;48.062;7.850;2022-09-29T16:41:46;2.20;;;2.00;;
4214;SDS011;2121;48.062;7.850;2022-09-29T16:49:35;5.00;;;3.30;;
4214;SDS011;2121;48.062;7.850;2022-09-29T16:52:12;3.00;;;2.83;;
4214;SDS011;2121;48.062;7.850;2022-09-29T17:00:36;4.37;;;3.20;;
4214;SDS011;2121;48.062;7.850;2022-09-29T17:03:02;3.10;;;2.90;;
4214;SDS011;2121;48.062;7.850;2022-09-29T17:05:30;4.83;;;3.20;;
4214;SDS011;2121;48.062;7.850;2022-09-29T17:08:02;17.70;;;4.60;;
4214;SDS011;2121;48.062;7.850;2022-09-29T17:10:31;12.17;;;5.43;;
4214;SDS011;2121;48.062;7.850;2022-09-29T17:12:57;7.90;;;4.47;;
4214;SDS011;2121;48.062;7.850;2022-09-29T17:15:22;7.70;;;5.17;;
4214;SDS011;2121;48.062;7.850;2022-09-29T17:17:49;19.00;;;12.47;;
4214;SDS011;2121;48.062;7.850;2022-09-29T17:20:17;14.70;;;10.90;;
4214;SDS011;2121;48.062;7.850;2022-09-29T17:22:53;15.10;;;10.23;;
4214;SDS011;2121;48.062;7.850;2022-09-29T17:25:19;10.67;;;7.80;;
4214;SDS011;2121;48.062;7.850;2022-09-29T17:27:46;10.70;;;6.20;;
4214;SDS011;2121;48.062;7.850;2022-09-29T17:30:30;10.00;;;3.83;;
4214;SDS011;2121;48.062;7.850;2022-09-29T17:32:57;5.60;;;4.20;;
4214;SDS011;2121;48.062;7.850;2022-09-29T17:35:24;7.40;;;3.47;;
4214;SDS011;2121;48.062;7.850;2022-09-29T17:37:55;3.07;;;2.87;;
4214;SDS011;2121;48.062;7.850;2022-09-29T17:40:40;4.47;;;3.50;;
4214;SDS011;2121;48.062;7.850;2022-09-29T17:43:18;5.20;;;4.27;;
4214;SDS011;2121;48.062;7.850;2022-09-29T17:45:44;7.07;;;3.60;;
4214;SDS011;2121;48.062;7.850;2022-09-29T17:48:11;2.47;;;2.37;;
4214;SDS011;2121;48.062;7.850;2022-09-29T17:50:47;4.10;;;3.70;;
4214;SDS011;2121;48.062;7.850;2022-09-29T17:53:15;3.83;;;3.43;;
4214;SDS011;2121;48.062;7.850;2022-09-29T17:55:43;3.60;;;3.30;;
4214;SDS011;2121;48.062;7.850;2022-09-29T17:58:13;4.20;;;3.80;;
4214;SDS011;2121;48.062;7.850;2022-09-29T18:00:40;4.63;;;4.07;;
4214;SDS011;2121;48.062;7.850;2022-09-29T18:03:12;5.40;;;3.93;;
4214;SDS011;2121;48.062;7.850;2022-09-29T18:05:39;5.97;;;5.43;;
4214;SDS011;2121;48.062;7.850;2022-09-29T18:08:09;4.63;;;4.17;;
4214;SDS011;2121;48.062;7.850;2022-09-29T18:10:52;5.73;;;5.23;;
4214;SDS011;2121;48.062;7.850;2022-09-29T18:13:20;4.53;;;4.13;;
4214;SDS011;2121;48.062;7.850;2022-09-29T18:15:47;7.10;;;5.10;;
4214;SDS011;2121;48.062;7.850;2022-09-29T18:18:15;5.07;;;3.90;;
4214;SDS011;2121;48.062;7.850;2022-09-29T18:20:45;5.63;;;5.10;;
4214;SDS011;2121;48.062;7.850;2022-09-29T18:23:13;7.57;;;6.00;;
4214;SDS011;2121;48.062;7.850;2022-09-29T18:25:46;10.97;;;7.40;;
4214;SDS011;2121;48.062;7.850;2022-09-29T18:28:14;9.00;;;5.53;;
4214;SDS011;2121;48.062;7.850;2022-09-29T18:30:42;6.03;;;5.50;;
4214;SDS011;2121;48.062;7.850;2022-09-29T18:33:17;6.47;;;5.13;;
4214;SDS011;2121;48.062;7.850;2022-09-29T18:35:44;6.90;;;5.40;;
4214;SDS011;2121;48.062;7.850;2022-09-29T18:38:16;11.87;;;7.27;;
4214;SDS011;2121;48.062;7.850;2022-09-29T18:40:41;6.03;;;5.43;;
4214;SDS011;2121;48.062;7.850;2022-09-29T18:43:08;10.03;;;7.73;;
4214;SDS011;2121;48.062;7.850;2022-09-29T18:45:37;15.90;;;9.20;;
4214;SDS011;2121;48.062;7.850;2022-09-29T18:48:11;13.10;;;9.67;;
4214;SDS011;2121;48.062;7.850;2022-09-29T18:50:42;13.70;;;7.90;;
4214;SDS011;2121;48.062;7.850;2022-09-29T18:53:15;10.53;;;5.07;;
4214;SDS011;2121;48.062;7.850;2022-09-29T18:55:44;6.33;;;5.30;;
4214;SDS011;2121;48.062;7.850;2022-09-29T18:58:11;5.00;;;4.23;;
4214;SDS011;2121;48.062;7.850;2022-09-29T19:00:44;9.83;;;4.63;;
4214;SDS011;2121;48.062;7.850;2022-09-29T19:03:20;7.97;;;4.17;;
4214;SDS011;2121;48.062;7.850;2022-09-29T19:05:48;4.17;;;3.20;;
4214;SDS011;2121;48.062;7.850;2022-09-29T19:08:15;6.80;;;5.30;;
4214;SDS011;2121;48.062;7.850;2022-09-29T19:10:52;4.80;;;4.07;;
4214;SDS011;2121;48.062;7.850;2022-09-29T19:13:21;5.17;;;3.40;;
4214;SDS011;2121;48.062;7.850;2022-09-29T19:15:47;3.33;;;3.03;;
4214;SDS011;2121;48.062;7.850;2022-09-29T19:18:18;4.70;;;3.10;;
4214;SDS011;2121;48.062;7.850;2022-09-29T19:20:47;3.20;;;2.60;;
4214;SDS011;2121;48.062;7.850;2022-09-29T19:23:19;5.23;;;3.23;;
4214;SDS011;2121;48.062;7.850;2022-09-29T19:25:47;4.20;;;3.07;;
4214;SDS011;2121;48.062;7.850;2022-09-29T19:28:15;2.77;;;2.57;;
4214;SDS011;2121;48.062;7.850;2022-09-29T19:30:42;3.53;;;3.23;;
4214;SDS011;2121;48.062;7.850;2022-09-29T19:33:10;3.90;;;3.60;;
4214;SDS011;2121;48.062;7.850;2022-09-29T19:35:44;3.97;;;2.90;;
4214;SDS011;2121;48.062;7.850;2022-09-29T19:38:12;5.60;;;3.57;;
4214;SDS011;2121;48.062;7.850;2022-09-29T19:40:39;4.23;;;3.43;;